Западная Россия

Регион "Западная Россия" VATRUS включает в себя территорию Республики Беларусь - Зональный центр Минск, а также территорию Региональных центров ЕС ОрВД Москва и Самара в Российской Федерации.

Примечателен регион тем, что в Беларуси полеты осуществляются в соответствии с международными документами ICAO, а в России - согласно Федеральным авиационным правилам. Это накладывает некоторые особенности работы, в том числе немного различаются минимальные интервалы.

Тем не менее, на всей территории региона радиосвязь может вестись как на русском, так и на английском языках.

Руководство осуществляют независимо руководители трех центров, их контакты вы можете найти на страницах РПИ ниже.

Лого Западная Россия
FSS региона
Обозначение
RU-WRC_FSS
Позывной
Запад-Контроль
Частота
135.320
Примечание
Top-down, исключая Московский УДР GND-FL285
Инструкторы региона
Alexander Mikhin * (Controller)
Alexander Petrenko (Instructor)
Alexey Dobronravov (Instructor)
Andrei Valasevich * (Controller)
Anton Myglan * (Unknown)
Artem Smorchkov (Instructor)
Denis Kashin (Instructor)
Dmitry Markus (Instructor)
Ilya Pyankov (Instructor)
Ivan Buev (Instructor)
Ivan Chokenyuk * (Controller)
Ivan Skatov (Instructor)
Matvey Safyannikov (Instructor)
Maxim Gerasimov (Instructor)
Maxim Tsygankov (Instructor)
Nick Smirnov (Instructor)
Roman Savel (Instructor)
Sergei Stetsko * (Controller)
Yulia Goryacheva (Instructor)
Включает в себя

РПИ Минск
РПИ Москва
РПИ Самара

Диспетчеры региона

Диспетчер Рейтинг Допуски *
Artem Mordvinov Controller UMMV_CTR
Alexander Mikhin Controller UUWV_CTR , UWWW_CTR
Alexander Petrenko Instructor UMMV_CTR , UUWV_CTR , UWWW_CTR
Alexey Dobronravov Instructor UUWV_CTR , UWWW_CTR
Andrei Valasevich Controller UMMV_CTR
Anton Gluchenkov Senior Student UWWW_CTR  *, UWWW_APP
Artem Morozov Controller UUWV_CTR , UWWW_CTR
Artem Smorchkov Instructor UUWV_CTR , UWWW_CTR
Denis Kashin Instructor UMMV_CTR
Dmitriy Kuzmin Controller UMMV_CTR  *, UMMS_APP
Dmitry Bugaychuk Instructor UWWW_CTR
Dmitry Markus Instructor UUWV_CTR , UWWW_CTR
George Kalandadze Controller UUWV_CTR
Ivan Buev Instructor UUWV_CTR , UWWW_CTR
Ivan Skatov Instructor UUWV_CTR , UWWW_CTR
Masha Stanchenko Controller UUWV_CTR
Maxim Finashko Controller UUWV_CTR
Maxim Gerasimov Instructor UMMV_CTR , UWLL_APP(UWLL+UWLW)
Maxim Tsygankov Instructor UUWV_CTR , UWWW_CTR
Michael Loyuk Controller UUWV_CTR
Nick Smirnov Instructor UUWV_CTR , UWWW_CTR
Robert Farber Controller UUWV_CTR
Roman Savel Instructor UMMV_CTR
Sergei Stetsko Controller UWWW_CTR
Sergey Kovalenko Controller UUWV_CTR
Stanley Yorke Controller UWWW_CTR , UUWW_F_APP, UUBW_APP, UUWW_DEP, UUWW_APP
Vladimir Anisimov Senior Controller UUWV_CTR , UWWW_CTR
Vyacheslav Neklyudov Controller UUWV_CTR
Yulia Goryacheva Instructor UUWV_CTR , UWWW_CTR
Yury Koryagin Instructor UUWV_CTR , UWWW_CTR
Akmal Choriev Student UMMS_GND
Aleksey Podlesny Student UUEE_S_GND, UUEE_N_GND, UUEE_GND
Aleksey Zgoda Student UMMS_GND
alex kozyro Student 2 UMMS_2_TWR*, UMMS_1_TWR*
Alexander Akhundov Student 2 UWLL_TWR
Alexander Belyakov Unknown UMMS_APP
Alexander Nazarenko Student UMMS_GND
Alexander Ryabchuk Student UUEE_S_GND, UUEE_N_GND, UUEE_GND
Alexandr Sosnovsky Senior Student UWKB_R_TWR
Alexey Verbitsky Student UMMS_GND
Alexsey Gorbunov Unknown UUDD_GND
Andrey Makarov Student UUWW_GND
Andrey Timofeev Student UUDD_GND
Anna Piliushko Student 2 UMMS_APP*
Anna Pukhlyakova Student UUWW_GND
Anton Beshenov Student UUEE_N_GND, UUEE_GND, UUEE_S_GND
Arseniy Artyushin Student 2 UWWW_TWR!!!, UWWW_APP*
Arseny Krutikov Senior Student UMMS_APP*
Artem Badalov Senior Student UWKB_R_TWR
Artem Kalashnikov Student UUWW_GND
Artem Pustovoi Student 2 UUWW_F_APP*, UUWW_TWR, UUWW_DEP*, UUWW_APP*
Artem Alexeev Student UUEE_GND, UUEE_N_GND, UUEE_S_GND, UUEE_S_TWR*, UUEE_N_TWR*, UUEE_TWR*
Arthur Kurbangaleev Student UWWW_GND
Artyom Somok Student UMMS_GND
Danila Yarov Senior Student UMMS_APP
Dmitrii Terekhov Student UUWW_GND
Egor Chertukhin Student UWWW_GND
Egor Goriachev Student 2 UUWW_F_APP*, UUDD_TWR, UUWW_APP*, UUEE_TWR, UUWW_DEP*, UUEE_N_TWR, UUEE_S_TWR, UUWW_TWR
Egor Petrov Student UUDD_GND
Evgeniy Dedyaev Senior Student UWSG_APP, UWKD_APP(UWKD+UWKJ+UWKE+UWKB+UWKS) , UWWW_APP, UWUU_APP, UWLL_APP(UWLL+UWLW)
Evgeniy Emelynov Student UUEE_GND, UUEE_N_GND, UUEE_S_GND
Evgeny Dubovitsky Student 2 UWLL_TWR, UWWW_TWR
Evgeny Zuev Senior Student UWWW_APP
Gleb Ishmuratov Student UUDD_GND
Gleb Smolkov Student 2 UUEE_TWR, UUEE_N_TWR, UUEE_S_TWR, UUEE_DEP*, UUEE_F_APP*, UUEE_APP*
Ignat Morozov Student 2 UMMS_GND
Iosif Karpov Student 2 UMMS_R_APP*
Ivan Baranov Student UUEE_N_GND, UUEE_GND, UUEE_TWR*, UUEE_N_TWR*, UUEE_S_GND, UUEE_S_TWR*
Ivan Davidovich Student UMMS_GND
Ivan Piskovsky Unknown UUWW_GND
Ivan Zubov Student 2 UWLL_TWR
Kirill Belskiy Student UUEE_N_GND, UUEE_S_TWR*, UUEE_N_TWR*, UUEE_GND, UUEE_TWR*, UUEE_S_GND
Kirill Korchagin Student UUWW_GND
Kirill Kudryavtsev Student 2 UUWW_TWR
Kseniia Dedukh Unknown UUWW_APP, UUWW_F_APP, UUWW_DEP
Maksim Otto Controller UUWW_F_APP, UUDD_DEP, UUEE_DEP, UUDD_F_APP, UUWW_APP, UUWW_DEP, UUDD_APP, UUEE_APP, UUEE_F_APP
Maksim Tsyro Student UMMS_GND
mansur sibgatullin Student 2 UWWW_TWR, UWKD_R_APP*, UWKD_TWR
Maxim Grechishkin Senior Student MSK_APP(UUDD+UUWW+UUEE)
Maxim Ivantsov Student 2 UMMS_R_APP*
Maxim Kalalenskiy Student 2 UUWW_TWR!!!, UWWW_TWR, UWLL_TWR, UWKD_TWR
Maxim Khromtsov Controller MSK_APP(UUEE+UUDD+UUWW)
Michael Kostelcev Student 2 UMMS_APP*
Mihail Mihailov Senior Student MSK_APP(UUEE+UUWW+UUDD)
Nikita Filatov Student UUWW_GND
Nikita Ioshkin Senior Student UWWW_APP
Nikita Ivlev Student 2 UUEE_APP*, UUEE_F_APP*, UUEE_DEP*, UUDD_TWR
Nikita Khomich Student UUEE_GND, UUEE_N_GND, UUEE_S_GND
Nikita Kuhtenkov Student UUEE_S_TWR*, UUEE_N_TWR*, UUEE_GND, UUEE_S_GND, UUEE_N_GND, UUEE_TWR*
Nikita Levin Senior Student MSK_APP(UUEE+UUDD+UUWW)
Oleg Alov Controller UUDD_APP, UUDD_F_APP, UUDD_DEP, UUEE_APP, UUEE_F_APP, UUEE_DEP, UUWW_APP, UUWW_F_APP, UUWW_DEP
Pavel Kostuykov Student 2 UMMS_2_TWR, UMMS_1_TWR
Pavel Moskvin Student 2 UUEE_DEP*, UUEE_APP*, UUEE_F_APP*
Pavel Sergienko Student 2 UUML_TWR
Pavel Yashin Unknown UMMS_APP*
Petr Efimov Student UUEE_S_GND, UUEE_N_GND, UUEE_GND
Petr Koreshkov Student UUEE_S_GND, UUEE_N_GND, UUEE_GND
Rustam Kilichev Student UUEE_S_GND, UUEE_N_GND, UUEE_GND
Sergey Isaev Student 2 MSK_APP(UUEE+UUWW+UUDD)
Sergey Milyaev Student UUDD_GND
tikhon pogrebnyak Student UMMS_GND
Ura Strelkov Student UMMS_GND
Vasya Voronin Student UWLL_GND
Vsevolod Shyshko Student UMMS_2_TWR*, UMMS_1_TWR*
Yury Kompaniychenko Student 2 UUML_TWR!!!

Аэропорты региона

ICAO Город Название Погода
UMMS Минск Минск UMMS 020530Z 09004MPS 5000 BR SCT004 00/00 Q1022 NOSIG RMK QBB120
UUWW Москва Внуково UUWW 020530Z 11002MPS 3200 BR FEW015 OVC034 01/M01 Q1029 R01/290042 NOSIG
UUDD Москва Домодедово UUDD 020530Z 08002MPS 0150 0050E R14R/1900U FZFG FEW013 M04/M05 Q1029 R14R/CLRD60 NOSIG
UUBW Москва Жуковский UUBW 020530Z 11002MPS 3200 BR BKN044 M01/M02 Q1030 R30/810250 NOSIG RMK QFE762
UUMU Москва Чкаловский
UUEE Москва Шереметьево UUEE 020530Z 07004MPS 2800 -SN BR OVC012 00/M01 Q1029 R06R/510140 R06C/510140 NOSIG
UWWW Самара Курумоч UWWW 020530Z 00000MPS CAVOK M08/M10 Q1033 R15/CLRD69 NOSIG RMK QFE763/1018
UWUU Уфа Уфа UWUU 020530Z VRB01MPS 5000 BR NSC M12/M15 Q1034 R32L/811050 NOSIG
UUOB Белгород Белгород UUOB 020530Z 05003MPS CAVOK M02/M04 Q1024 R11/010070 NOSIG
UMBB Брест Брест UMBB 020500Z 12004MPS 5000 BR OVC012 05/04 Q1015 NOSIG
UUBP Брянск Брянск
UWKB Бугульма Бугульма
UMII Витебск Восточный UMII 020500Z 11004MPS 9999 FEW006 OVC026 01/00 Q1024 TEMPO 2000 BR BKN005 RMK QBB200
UUOO Воронеж Воронеж UUOO 020530Z 11003MPS CAVOK M05/M06 Q1028 R12/010060 NOSIG RMK QFE756
UMGG Гомель Гомель UMGG 020530Z 08004MPS 7000 NSC 01/M00 Q1024 NOSIG
UMMG Гродно Гродно UMMG 020500Z 11005G08MPS 7000 OVC016 04/01 Q1017 NOSIG
UUBI Иваново Иваново
UWKJ Йошкар-Ола Йошкар-Ола
UWKD Казань Казань UWKD 020530Z 17003MPS 6000 NSC M07/M08 Q1032 R11/810050 NOSIG RMK QFE764/1018
UUBC Калуга Калуга UUBC 020530Z 09001MPS 0350 R31/0350D FZFG FEW/// M03/M03 Q1028 R31/810250 NOSIG RMK QFE754/1005
UUOK Курск Курск UUOK 020530Z 08002MPS 050V110 CAVOK M03/M06 Q1026 R12/090050 NOSIG RMK QFE751/1002
UMOO Могилёв Могилёв UMOO 020530Z 10003MPS 3500 BR BKN030 00/M00 Q1025 NOSIG
UUMO Москва Остафьево UUMO 020530Z 09002MPS 4200 BR BKN041 01/M01 Q1029 R25/750530 NOSIG RMK QFE756/1008
UWKE Нижнекамск Бегишево UWKE 020530Z 25003MPS 5000 BR NSC M08/M10 Q1032 R21/810070 NOSIG RMK QFE757/1010
UWGG Нижний Новгород Стригино UWGG 020530Z 00000MPS 1900 R36R/1900U SN BR OVC003 M00/M00 Q1031 R36R/550140 NOSIG
UWOO Оренбург Оренбург UWOO 020530Z 00000MPS 6000 OVC003 M14/M15 Q1035 R08/450152 NOSIG RMK QBB110 QFE765/1020
UWOR Орск Орск UWOR 020500Z 36002MPS 9999 OVC027 M08/M10 Q1034 R25/CLRD60 NOSIG RMK QFE752/1002
UWPP Пенза Пенза
UWPS Саранск Саранск UWPS 020530Z 17003MPS CAVOK M09/M10 Q1032 R20/810548 NOSIG RMK QFE756
UWSG Саратов Гагарин UWSG 020530Z 29002MPS 2600 -SN BR BKN001 BKN007 M13/M15 Q1035 R26/310065 NOSIG RMK QBB050 QFE773/1031
UWLL Ульяновск-УЛК Ульяновск UWLL 020530Z 18003MPS CAVOK M08/M10 Q1033 R20/810360 NOSIG RMK QFE764/1019
UWLW Ульяновск-УЛС Восточный UWLW 020500Z 19001MPS 9000 NSC M10/M11 Q1033 R20/820558 NOSIG RMK QFE769/1026
UWKS Чебоксары Чебоксары UWKS 020530Z 19002MPS 6000 -SN BKN015 M02/M02 Q1031 R24/490537 NOSIG RMK QFE759
UUDL Ярославль Туношна UUDL 020530Z 08002MPS 9999 OVC017 M01/M03 Q1032 R23/590540 NOSIG RMK QFE765
UUMW Ватулино Ватулино
UUML Воскресенск Северка